createdAt,value
2016-11-17T10:12:50.179Z,1003.89
2016-11-17T10:13:15.762Z,1003.88
2016-11-17T10:13:41.391Z,1003.89
2016-11-17T10:14:06.967Z,1003.87
2016-11-17T10:14:32.521Z,1003.89
2016-11-17T10:14:58.449Z,1003.85
2016-11-17T10:15:23.986Z,1003.85
2016-11-17T10:15:49.669Z,1003.82
2016-11-17T10:16:15.213Z,1003.79
2016-11-17T10:16:40.765Z,1003.78
2016-11-17T10:17:06.447Z,1003.8
2016-11-17T10:18:15.320Z,1003.9
2016-11-17T10:20:22.577Z,1003.83
2016-11-17T10:20:48.109Z,1003.81
2016-11-17T10:21:13.714Z,1003.78
2016-11-17T10:21:39.328Z,1003.82
2016-11-17T10:22:05.032Z,1003.78
2016-11-17T10:22:30.597Z,1003.76
2016-11-17T10:22:56.168Z,1003.82
2016-11-17T10:23:21.775Z,1003.77
2016-11-17T10:23:47.330Z,1003.78
2016-11-17T10:24:12.896Z,1003.77
2016-11-17T10:24:38.640Z,1003.75
2016-11-17T10:25:04.171Z,1003.75
2016-11-17T10:25:29.711Z,1003.77
2016-11-17T10:25:55.276Z,1003.75
2016-11-17T10:26:20.922Z,1003.69
2016-11-17T10:26:46.499Z,1003.65
2016-11-17T10:27:12.049Z,1003.66
2016-11-17T10:27:37.703Z,1003.63
2016-11-17T10:28:03.271Z,1003.62
2016-11-17T10:28:28.841Z,1003.64
2016-11-17T10:28:54.512Z,1003.66
2016-11-17T10:29:20.151Z,1003.67
2016-11-17T10:29:45.708Z,1003.62
2016-11-17T10:30:11.253Z,1003.61
2016-11-17T10:30:37.181Z,1003.66
2016-11-17T10:31:02.837Z,1003.62
2016-11-17T10:31:28.396Z,1003.62
2016-11-17T10:31:53.983Z,1003.65
2016-11-17T10:32:19.543Z,1003.63
2016-11-17T10:32:45.119Z,1003.66
2016-11-17T10:33:10.675Z,1003.62
2016-11-17T10:33:36.377Z,1003.65
2016-11-17T10:34:01.938Z,1003.6
2016-11-17T10:34:27.498Z,1003.59
2016-11-17T10:34:53.087Z,1003.61
2016-11-17T10:35:18.798Z,1003.61
2016-11-17T10:35:44.363Z,1003.57
2016-11-17T10:36:10.047Z,1003.53
2016-11-17T10:36:35.617Z,1003.56
2016-11-17T10:37:01.191Z,1003.57
2016-11-17T10:37:26.785Z,1003.5
2016-11-17T10:37:52.470Z,1003.54
2016-11-17T10:38:18.049Z,1003.55
2016-11-17T10:38:43.612Z,1003.54
2016-11-17T10:39:09.238Z,1003.49
2016-11-17T10:39:34.809Z,1003.54
2016-11-17T10:40:00.615Z,1003.58
2016-11-17T10:40:26.196Z,1003.57
2016-11-17T10:40:51.783Z,1003.52
2016-11-17T10:41:17.351Z,1003.47
2016-11-17T10:41:42.968Z,1003.48
2016-11-17T10:42:08.535Z,1003.46
2016-11-17T10:42:34.117Z,1003.47
2016-11-17T10:42:59.668Z,1003.46
2016-11-17T10:43:25.225Z,1003.44
2016-11-17T10:43:50.837Z,1003.45
2016-11-17T10:44:16.395Z,1003.47
2016-11-17T10:44:42.034Z,1003.46
2016-11-17T10:45:07.617Z,1003.46
2016-11-17T10:46:16.206Z,1003.4
2016-11-17T10:46:41.748Z,1003.45
2016-11-17T10:47:07.373Z,1003.47
2016-11-17T10:47:32.955Z,1003.4
2016-11-17T10:47:58.541Z,1003.4
2016-11-17T10:48:24.137Z,1003.38
2016-11-17T10:48:49.705Z,1003.4
2016-11-17T10:49:15.318Z,1003.39
2016-11-17T10:49:40.925Z,1003.37
2016-11-17T10:50:06.437Z,1003.29
2016-11-17T10:50:32.149Z,1003.35
2016-11-17T10:50:57.781Z,1003.37
2016-11-17T10:51:23.387Z,1003.29
2016-11-17T10:51:48.957Z,1003.35
2016-11-17T10:52:14.515Z,1003.37
2016-11-17T10:52:40.078Z,1003.33
2016-11-17T10:53:05.645Z,1003.36
2016-11-17T10:53:31.354Z,1003.31
2016-11-17T10:53:57.040Z,1003.32
2016-11-17T10:54:22.619Z,1003.3
2016-11-17T10:54:48.181Z,1003.28
2016-11-17T10:55:13.744Z,1003.26
2016-11-17T10:55:39.315Z,1003.27
2016-11-17T10:56:04.880Z,1003.25
2016-11-17T10:56:30.584Z,1003.24
2016-11-17T10:56:56.176Z,1003.26
2016-11-17T10:57:21.727Z,1003.27
2016-11-17T10:57:47.382Z,1003.27
2016-11-17T10:58:12.982Z,1003.31
2016-11-17T10:58:38.574Z,1003.32
2016-11-17T10:59:04.148Z,1003.28
2016-11-17T10:59:29.705Z,1003.3
2016-11-17T10:59:55.263Z,1003.3
2016-11-17T11:00:20.844Z,1003.29
2016-11-17T11:00:46.448Z,1003.28
2016-11-17T11:01:11.994Z,1003.29
2016-11-17T11:01:37.552Z,1003.33
2016-11-17T11:02:03.137Z,1003.31
2016-11-17T11:02:28.712Z,1003.28
2016-11-17T11:02:54.482Z,1003.29
2016-11-17T11:03:20.031Z,1003.28
2016-11-17T11:03:45.721Z,1003.3
2016-11-17T11:04:11.303Z,1003.26
2016-11-17T11:04:36.869Z,1003.26
2016-11-17T11:05:03.338Z,1003.27
2016-11-17T11:05:28.887Z,1003.27
2016-11-17T11:05:54.457Z,1003.27
2016-11-17T11:06:20.017Z,1003.23
2016-11-17T11:06:45.583Z,1003.28
2016-11-17T11:07:11.145Z,1003.28
2016-11-17T11:07:36.703Z,1003.29
2016-11-17T11:08:02.268Z,1003.3
2016-11-17T11:08:27.836Z,1003.23
2016-11-17T11:08:53.460Z,1003.28
2016-11-17T11:09:19.131Z,1003.24
2016-11-17T11:09:44.707Z,1003.2
2016-11-17T11:10:10.336Z,1003.13
2016-11-17T11:10:35.935Z,1003.14
2016-11-17T11:11:01.505Z,1003.12
2016-11-17T11:11:27.190Z,1003.13
2016-11-17T11:11:52.795Z,1003.11
2016-11-17T11:12:18.404Z,1003.09
2016-11-17T11:12:43.983Z,1003.03
2016-11-17T11:13:09.555Z,1003.1
2016-11-17T11:13:35.108Z,1003.08
2016-11-17T11:14:00.898Z,1003.11
2016-11-17T11:14:26.458Z,1003.07
2016-11-17T11:14:52.000Z,1003.1
2016-11-17T11:15:17.579Z,1003.06
2016-11-17T11:15:43.143Z,1003.08
2016-11-17T11:16:08.767Z,1003.05
2016-11-17T11:16:34.444Z,1003.05
2016-11-17T11:16:59.985Z,1003.05
2016-11-17T11:17:25.565Z,1003
2016-11-17T11:17:51.161Z,1002.98
2016-11-17T11:18:16.739Z,1002.95
2016-11-17T11:18:42.286Z,1002.94
2016-11-17T11:19:07.948Z,1002.88
2016-11-17T11:19:33.554Z,1002.91
2016-11-17T11:19:59.087Z,1002.91
2016-11-17T11:20:24.744Z,1002.84
2016-11-17T11:20:50.424Z,1002.87
2016-11-17T11:21:15.996Z,1002.86
2016-11-17T11:21:41.632Z,1002.92
2016-11-17T11:22:07.190Z,1002.84
2016-11-17T11:22:32.747Z,1002.87
2016-11-17T11:22:58.373Z,1002.9
2016-11-17T11:23:24.000Z,1002.9
2016-11-17T11:23:49.677Z,1002.91
2016-11-17T11:24:15.221Z,1002.86
2016-11-17T11:24:40.826Z,1002.87
2016-11-17T11:25:06.399Z,1002.86
2016-11-17T11:25:31.941Z,1002.81
2016-11-17T11:25:57.696Z,1002.83
2016-11-17T11:26:23.254Z,1002.82
2016-11-17T11:26:48.848Z,1002.88
2016-11-17T11:27:14.442Z,1002.79
2016-11-17T11:27:40.053Z,1002.78
2016-11-17T11:28:05.650Z,1002.78
2016-11-17T11:28:31.215Z,1002.82
2016-11-17T11:28:56.818Z,1002.75
2016-11-17T11:29:22.380Z,1002.74
2016-11-17T11:29:47.933Z,1002.74
2016-11-17T11:30:13.600Z,1002.71
2016-11-17T11:30:39.172Z,1002.71
2016-11-17T11:31:04.738Z,1002.72
2016-11-17T11:31:30.374Z,1002.74
2016-11-17T11:31:55.942Z,1002.7
2016-11-17T11:32:21.546Z,1002.7
2016-11-17T11:32:47.144Z,1002.67
2016-11-17T11:33:12.869Z,1002.74
2016-11-17T11:33:38.442Z,1002.69
2016-11-17T11:34:04.018Z,1002.67
2016-11-17T11:34:29.650Z,1002.68
2016-11-17T11:34:55.193Z,1002.7
2016-11-17T11:35:20.729Z,1002.69
2016-11-17T11:35:46.463Z,1002.71
2016-11-17T11:36:12.057Z,1002.7
2016-11-17T11:36:37.620Z,1002.72
2016-11-17T11:37:03.265Z,1002.71
2016-11-17T11:37:28.929Z,1002.72
2016-11-17T11:37:54.670Z,1002.72
2016-11-17T11:38:20.228Z,1002.66
2016-11-17T11:38:45.769Z,1002.65
2016-11-17T11:39:11.394Z,1002.65
2016-11-17T11:39:36.969Z,1002.62
2016-11-17T11:40:02.528Z,1002.61
2016-11-17T11:40:28.105Z,1002.57
2016-11-17T11:40:53.755Z,1002.57
2016-11-17T11:41:19.369Z,1002.55
2016-11-17T11:41:45.079Z,1002.53
2016-11-17T11:42:10.747Z,1002.56
2016-11-17T11:42:36.314Z,1002.57
2016-11-17T11:43:01.944Z,1002.57
2016-11-17T11:43:27.515Z,1002.64
2016-11-17T11:43:53.104Z,1002.61
2016-11-17T11:44:18.740Z,1002.65
2016-11-17T11:44:44.288Z,1002.61
2016-11-17T11:45:09.856Z,1002.62
2016-11-17T11:45:35.396Z,1002.6
2016-11-17T11:46:01.035Z,1002.61
2016-11-17T11:46:26.683Z,1002.58
2016-11-17T11:46:52.259Z,1002.62
2016-11-17T11:47:17.807Z,1002.55
2016-11-17T11:47:43.517Z,1002.58
2016-11-17T11:48:09.136Z,1002.55
2016-11-17T11:48:34.677Z,1002.53
2016-11-17T11:49:00.283Z,1002.49
2016-11-17T11:49:25.919Z,1002.5
2016-11-17T11:49:51.487Z,1002.45
2016-11-17T11:50:17.073Z,1002.46
2016-11-17T11:50:42.696Z,1002.48
2016-11-17T11:51:08.300Z,1002.49
2016-11-17T11:51:33.949Z,1002.48
2016-11-17T11:51:59.546Z,1002.49
2016-11-17T11:52:25.176Z,1002.52
2016-11-17T11:52:50.734Z,1002.52
2016-11-17T11:53:16.335Z,1002.54
2016-11-17T11:53:41.936Z,1002.51
2016-11-17T11:54:07.508Z,1002.52
2016-11-17T11:54:33.091Z,1002.5
2016-11-17T11:54:58.627Z,1002.5
2016-11-17T11:55:24.228Z,1002.49
2016-11-17T11:55:49.778Z,1002.47
2016-11-17T11:56:15.528Z,1002.47
2016-11-17T11:56:41.157Z,1002.47
2016-11-17T11:57:06.849Z,1002.46
2016-11-17T11:57:32.397Z,1002.42
2016-11-17T11:57:58.063Z,1002.44
2016-11-17T11:58:23.618Z,1002.42
2016-11-17T11:58:49.199Z,1002.43
2016-11-17T11:59:14.772Z,1002.43
2016-11-17T11:59:40.326Z,1002.42
2016-11-17T12:00:05.879Z,1002.42
2016-11-17T12:00:31.512Z,1002.38
2016-11-17T12:00:57.209Z,1002.41
2016-11-17T12:01:22.764Z,1002.39
2016-11-17T12:01:48.347Z,1002.42
2016-11-17T12:02:13.915Z,1002.46
2016-11-17T12:02:39.509Z,1002.47
2016-11-17T12:03:05.067Z,1002.47
2016-11-17T12:03:30.793Z,1002.42
2016-11-17T12:03:56.413Z,1002.47
2016-11-17T12:04:21.962Z,1002.5
2016-11-17T12:04:47.606Z,1002.47
2016-11-17T12:05:13.254Z,1002.47
2016-11-17T12:05:38.820Z,1002.46
2016-11-17T12:06:04.465Z,1002.48
2016-11-17T12:06:30.036Z,1002.51
2016-11-17T12:06:55.671Z,1002.52
2016-11-17T12:07:21.238Z,1002.49
2016-11-17T12:07:46.801Z,1002.51
2016-11-17T12:08:12.369Z,1002.54
2016-11-17T12:08:37.930Z,1002.45
2016-11-17T12:09:36.180Z,1002.38
2016-11-17T12:10:01.773Z,1002.38
2016-11-17T12:10:27.483Z,1002.3
2016-11-17T12:10:53.011Z,1002.3
2016-11-17T12:11:18.601Z,1002.27
2016-11-17T12:11:44.228Z,1002.23
2016-11-17T12:12:09.891Z,1002.22
2016-11-17T12:12:35.444Z,1002.18
2016-11-17T12:13:01.009Z,1002.16
2016-11-17T12:14:09.299Z,1002.14
2016-11-17T12:16:16.631Z,1002.17
2016-11-17T12:16:42.222Z,1002.23
2016-11-17T12:17:07.808Z,1002.3
2016-11-17T12:17:33.404Z,1002.27
2016-11-17T12:18:36.736Z,1002.28
2016-11-17T12:19:02.293Z,1002.35
2016-11-17T12:19:27.930Z,1002.36
2016-11-17T12:19:53.716Z,1002.31
2016-11-17T12:20:19.292Z,1002.3
2016-11-17T12:20:45.096Z,1002.26
2016-11-17T12:21:10.732Z,1002.24
2016-11-17T12:21:36.290Z,1002.28
2016-11-17T12:22:01.887Z,1002.3
2016-11-17T12:22:27.422Z,1002.33
2016-11-17T12:22:52.985Z,1002.33
2016-11-17T12:23:18.562Z,1002.31
2016-11-17T12:23:44.124Z,1002.3
2016-11-17T12:24:09.662Z,1002.31
2016-11-17T12:24:35.252Z,1002.33
2016-11-17T12:25:00.811Z,1002.35
2016-11-17T12:25:26.384Z,1002.29
2016-11-17T12:26:24.554Z,1002.33
2016-11-17T12:26:50.128Z,1002.31
2016-11-17T12:27:15.701Z,1002.28
2016-11-17T12:27:41.257Z,1002.29
2016-11-17T12:28:06.929Z,1002.28
2016-11-17T12:28:32.480Z,1002.3
2016-11-17T12:28:58.102Z,1002.32
2016-11-17T12:29:23.715Z,1002.33
2016-11-17T12:29:49.273Z,1002.34
2016-11-17T12:30:14.847Z,1002.35
2016-11-17T12:30:40.473Z,1002.34
2016-11-17T12:31:06.001Z,1002.35
2016-11-17T12:31:31.567Z,1002.31
2016-11-17T12:31:57.278Z,1002.32
2016-11-17T12:32:22.927Z,1002.33
2016-11-17T12:32:48.514Z,1002.37
2016-11-17T12:33:15.007Z,1002.38
2016-11-17T12:33:40.579Z,1002.43
2016-11-17T12:34:06.127Z,1002.41
2016-11-17T12:34:31.735Z,1002.38
2016-11-17T12:34:57.316Z,1002.31
2016-11-17T12:35:22.949Z,1002.32
2016-11-17T12:35:48.504Z,1002.32
2016-11-17T12:36:14.103Z,1002.33
2016-11-17T12:36:39.736Z,1002.22
2016-11-17T12:37:05.230Z,1002.34
2016-11-17T12:37:30.810Z,1002.27
2016-11-17T12:37:56.461Z,1002.3
2016-11-17T12:38:22.046Z,1002.27
2016-11-17T12:38:47.649Z,1002.31
2016-11-17T12:39:13.256Z,1002.28
2016-11-17T12:39:38.893Z,1002.3
2016-11-17T12:40:04.495Z,1002.28
2016-11-17T12:40:30.081Z,1002.31
2016-11-17T12:40:55.678Z,1002.27
2016-11-17T12:41:21.285Z,1002.24
2016-11-17T12:41:46.912Z,1002.3
2016-11-17T12:42:12.514Z,1002.32
2016-11-17T12:42:38.124Z,1002.3
2016-11-17T12:43:03.691Z,1002.25
2016-11-17T12:43:29.302Z,1002.27
2016-11-17T12:43:54.899Z,1002.22
2016-11-17T12:44:20.462Z,1002.25
2016-11-17T12:44:46.138Z,1002.28
2016-11-17T12:45:11.733Z,1002.21
2016-11-17T12:45:37.309Z,1002.19
2016-11-17T12:46:02.860Z,1002.2
2016-11-17T12:46:28.518Z,1002.2
2016-11-17T12:46:54.071Z,1002.2
2016-11-17T12:47:19.634Z,1002.14
2016-11-17T12:47:45.264Z,1002.2
2016-11-17T12:48:10.884Z,1002.21
2016-11-17T12:48:36.455Z,1002.14
2016-11-17T12:49:02.025Z,1002.17
2016-11-17T12:49:27.697Z,1002.15
2016-11-17T12:49:53.287Z,1002.14
2016-11-17T12:50:18.851Z,1002.13
2016-11-17T12:50:44.522Z,1002.13
2016-11-17T12:51:10.345Z,1002.17
2016-11-17T12:51:35.921Z,1002.11
2016-11-17T12:52:01.492Z,1002.11
2016-11-17T12:52:27.071Z,1002.08
2016-11-17T12:52:52.763Z,1002.06
2016-11-17T12:53:18.370Z,1002.04
2016-11-17T12:53:44.010Z,1002
2016-11-17T12:54:09.506Z,1002.08
2016-11-17T12:54:35.098Z,1002.05
2016-11-17T12:55:00.653Z,1002.06
2016-11-17T12:55:26.240Z,1002.13
2016-11-17T12:55:51.808Z,1002.06
2016-11-17T12:56:17.355Z,1002.08
2016-11-17T12:56:42.960Z,1002.02
2016-11-17T12:57:08.543Z,1002.05
2016-11-17T12:57:34.145Z,1002.03
2016-11-17T12:57:59.751Z,1002.02
2016-11-17T12:58:25.395Z,1002.03
2016-11-17T12:58:50.965Z,1001.99
2016-11-17T12:59:16.562Z,1002.01
2016-11-17T12:59:42.123Z,1002.02
2016-11-17T13:00:07.684Z,1002
2016-11-17T13:00:33.333Z,1001.96
2016-11-17T13:00:58.892Z,1001.96
2016-11-17T13:01:24.567Z,1001.93
2016-11-17T13:01:50.162Z,1001.94
2016-11-17T13:02:15.785Z,1001.89
2016-11-17T13:02:41.356Z,1001.92
2016-11-17T13:03:06.939Z,1001.9
2016-11-17T13:03:32.576Z,1001.89
2016-11-17T13:03:58.131Z,1001.87
2016-11-17T13:04:23.775Z,1001.88
2016-11-17T13:05:32.238Z,1001.87
2016-11-17T13:05:57.810Z,1001.89
2016-11-17T13:06:23.463Z,1001.87
2016-11-17T13:06:49.008Z,1001.83
2016-11-17T13:07:14.586Z,1001.83
2016-11-17T13:07:40.254Z,1001.82
2016-11-17T13:08:05.852Z,1001.79
2016-11-17T13:08:31.436Z,1001.86
2016-11-17T13:08:56.987Z,1001.82
2016-11-17T13:09:22.568Z,1001.79
2016-11-17T13:09:48.108Z,1001.82
2016-11-17T13:10:13.775Z,1001.87
2016-11-17T13:10:39.475Z,1001.82
2016-11-17T13:11:05.022Z,1001.8
2016-11-17T13:11:30.616Z,1001.82
2016-11-17T13:11:56.146Z,1001.82
2016-11-17T13:12:21.788Z,1001.8
2016-11-17T13:12:47.327Z,1001.79
2016-11-17T13:13:12.883Z,1001.8
2016-11-17T13:13:38.456Z,1001.83
2016-11-17T13:14:04.027Z,1001.74
2016-11-17T13:14:29.637Z,1001.77
2016-11-17T13:14:55.196Z,1001.78
2016-11-17T13:15:20.791Z,1001.81
2016-11-17T13:15:46.376Z,1001.75
2016-11-17T13:16:12.057Z,1001.73
2016-11-17T13:16:37.628Z,1001.74
2016-11-17T13:17:03.347Z,1001.77
2016-11-17T13:17:28.950Z,1001.78
2016-11-17T13:17:54.627Z,1001.76
2016-11-17T13:18:20.200Z,1001.76
2016-11-17T13:18:45.736Z,1001.73
2016-11-17T13:19:11.318Z,1001.69
2016-11-17T13:19:36.867Z,1001.73
2016-11-17T13:20:02.483Z,1001.69
2016-11-17T13:20:28.074Z,1001.72
2016-11-17T13:20:53.729Z,1001.71
2016-11-17T13:21:19.295Z,1001.65
2016-11-17T13:21:44.880Z,1001.69
2016-11-17T13:22:10.457Z,1001.7
2016-11-17T13:22:36.012Z,1001.67
2016-11-17T13:23:01.601Z,1001.69
2016-11-17T13:23:27.274Z,1001.63
2016-11-17T13:24:30.539Z,1001.67
2016-11-17T13:26:37.801Z,1001.63
2016-11-17T13:27:03.375Z,1001.62
2016-11-17T13:27:28.974Z,1001.58
2016-11-17T13:27:54.523Z,1001.57
2016-11-17T13:28:20.080Z,1001.61
2016-11-17T13:28:45.744Z,1001.56
2016-11-17T13:29:11.331Z,1001.6
2016-11-17T13:29:36.979Z,1001.6
2016-11-17T13:30:02.670Z,1001.56
2016-11-17T13:30:28.214Z,1001.55
2016-11-17T13:30:53.794Z,1001.57
2016-11-17T13:31:19.350Z,1001.6
2016-11-17T13:31:44.934Z,1001.59
2016-11-17T13:32:10.498Z,1001.56
2016-11-17T13:32:36.123Z,1001.55
2016-11-17T13:33:01.685Z,1001.62
2016-11-17T13:33:27.265Z,1001.55
2016-11-17T13:33:52.883Z,1001.54
2016-11-17T13:34:18.434Z,1001.6
2016-11-17T13:34:44.002Z,1001.56
2016-11-17T13:35:09.558Z,1001.56
2016-11-17T13:35:35.165Z,1001.56
2016-11-17T13:36:00.764Z,1001.54
2016-11-17T13:36:26.311Z,1001.51
2016-11-17T13:36:51.912Z,1001.5
2016-11-17T13:37:17.557Z,1001.36
2016-11-17T13:37:43.156Z,1001.37
2016-11-17T13:38:08.807Z,1001.38
2016-11-17T13:38:34.365Z,1001.42
2016-11-17T13:38:59.967Z,1001.41
2016-11-17T13:39:25.546Z,1001.48
2016-11-17T13:39:51.072Z,1001.45
2016-11-17T13:40:16.750Z,1001.47
2016-11-17T13:40:42.309Z,1001.45
2016-11-17T13:41:07.858Z,1001.44
2016-11-17T13:41:33.416Z,1001.45
2016-11-17T13:41:59.015Z,1001.46
2016-11-17T13:42:24.571Z,1001.42
2016-11-17T13:42:50.169Z,1001.46
2016-11-17T13:43:15.806Z,1001.41
2016-11-17T13:43:41.979Z,1001.4
2016-11-17T13:44:07.594Z,1001.39
2016-11-17T13:44:33.280Z,1001.29
2016-11-17T13:44:58.884Z,1001.36
2016-11-17T13:45:24.461Z,1001.32
2016-11-17T13:45:50.083Z,1001.34
2016-11-17T13:46:15.651Z,1001.33
2016-11-17T13:46:41.207Z,1001.38
2016-11-17T13:47:06.779Z,1001.32
2016-11-17T13:47:32.356Z,1001.27
2016-11-17T13:47:57.926Z,1001.29
2016-11-17T13:48:23.531Z,1001.32
2016-11-17T13:48:49.151Z,1001.29
2016-11-17T13:49:14.701Z,1001.29
2016-11-17T13:49:40.351Z,1001.31
2016-11-17T13:50:05.938Z,1001.33
2016-11-17T13:51:24.556Z,1001.22
2016-11-17T13:51:50.111Z,1001.22
2016-11-17T13:52:15.687Z,1001.29
2016-11-17T13:52:41.266Z,1001.3
2016-11-17T13:53:06.827Z,1001.32
2016-11-17T13:53:32.495Z,1001.33
2016-11-17T13:53:58.074Z,1001.34
2016-11-17T13:54:23.640Z,1001.36
2016-11-17T13:54:49.266Z,1001.36
2016-11-17T13:55:14.823Z,1001.36
2016-11-17T13:55:40.401Z,1001.34
2016-11-17T13:56:05.971Z,1001.33
2016-11-17T13:56:31.531Z,1001.25
2016-11-17T13:56:57.096Z,1001.26
2016-11-17T13:57:22.715Z,1001.37
2016-11-17T13:57:48.280Z,1001.36
2016-11-17T13:58:13.843Z,1001.38
2016-11-17T13:58:39.532Z,1001.36
2016-11-17T13:59:05.161Z,1001.35
2016-11-17T13:59:30.724Z,1001.3
2016-11-17T13:59:56.411Z,1001.28
2016-11-17T14:00:22.044Z,1001.36
2016-11-17T14:00:47.612Z,1001.33
2016-11-17T14:01:13.175Z,1001.37
2016-11-17T14:01:38.968Z,1001.36
2016-11-17T14:02:04.615Z,1001.31
2016-11-17T14:02:30.202Z,1001.33
2016-11-17T14:02:55.752Z,1001.32
2016-11-17T14:03:21.309Z,1001.38
2016-11-17T14:03:46.895Z,1001.34
2016-11-17T14:04:12.492Z,1001.35
2016-11-17T14:04:38.162Z,1001.33
2016-11-17T14:05:03.755Z,1001.32
2016-11-17T14:05:29.332Z,1001.33
2016-11-17T14:05:54.884Z,1001.27
2016-11-17T14:06:20.482Z,1001.34
2016-11-17T14:06:46.043Z,1001.31
2016-11-17T14:07:11.655Z,1001.32
2016-11-17T14:07:37.220Z,1001.28
2016-11-17T14:08:02.775Z,1001.31
2016-11-17T14:08:28.351Z,1001.25
2016-11-17T14:08:53.916Z,1001.28
2016-11-17T14:09:19.503Z,1001.26
2016-11-17T14:09:45.066Z,1001.27
2016-11-17T14:10:10.609Z,1001.28
2016-11-17T14:10:36.153Z,1001.26
2016-11-17T14:11:01.875Z,1001.29
2016-11-17T14:11:27.418Z,1001.27
2016-11-17T14:11:52.992Z,1001.27
2016-11-17T14:12:18.548Z,1001.27
2016-11-17T14:12:44.189Z,1001.23
2016-11-17T14:13:09.765Z,1001.25
2016-11-17T14:13:35.342Z,1001.22
2016-11-17T14:14:00.991Z,1001.21
2016-11-17T14:14:26.554Z,1001.26
2016-11-17T14:14:52.115Z,1001.17
2016-11-17T14:15:17.717Z,1001.18
2016-11-17T14:15:43.704Z,1001.19
2016-11-17T14:16:08.945Z,1001.18
2016-11-17T14:16:34.628Z,1001.2
2016-11-17T14:17:00.212Z,1001.19
2016-11-17T14:17:26.008Z,1001.22
2016-11-17T14:17:51.690Z,1001.2
2016-11-17T14:18:17.255Z,1001.18
2016-11-17T14:18:42.813Z,1001.23
2016-11-17T14:19:08.464Z,1001.21
2016-11-17T14:19:34.023Z,1001.18
2016-11-17T14:19:59.671Z,1001.22
2016-11-17T14:20:25.228Z,1001.24
2016-11-17T14:20:50.821Z,1001.18
2016-11-17T14:21:16.479Z,1001.21
2016-11-17T14:21:42.037Z,1001.17
2016-11-17T14:22:07.619Z,1001.19
2016-11-17T14:22:33.191Z,1001.16
2016-11-17T14:22:58.852Z,1001.2
2016-11-17T14:23:24.509Z,1001.19
2016-11-17T14:23:50.065Z,1001.09
2016-11-17T14:24:15.633Z,1001.09
2016-11-17T14:24:41.215Z,1001.09
2016-11-17T14:25:06.821Z,1001.07
2016-11-17T14:25:32.346Z,1001.12
2016-11-17T14:25:58.042Z,1001.12
2016-11-17T14:26:23.661Z,1001.08
2016-11-17T14:26:49.281Z,1001.16
2016-11-17T14:27:14.894Z,1001.07
2016-11-17T14:27:40.444Z,1001.05
2016-11-17T14:28:06.023Z,1001.07
2016-11-17T14:28:31.690Z,1001.08
2016-11-17T14:28:57.250Z,1001.01
2016-11-17T14:29:22.845Z,1001.08
2016-11-17T14:29:48.391Z,1000.98
2016-11-17T14:30:14.282Z,1001.09
2016-11-17T14:30:39.695Z,1001.03
2016-11-17T14:31:05.253Z,1000.96
2016-11-17T14:31:30.895Z,1000.95
2016-11-17T14:31:56.457Z,1000.96
2016-11-17T14:32:22.030Z,1001.03
2016-11-17T14:32:47.661Z,1001.06
2016-11-17T14:33:13.266Z,1001
2016-11-17T14:33:38.836Z,1000.96
2016-11-17T14:34:04.368Z,1000.99
2016-11-17T14:35:55.505Z,1000.99
2016-11-17T14:36:21.080Z,1000.97
2016-11-17T14:36:46.672Z,1001.04
2016-11-17T14:37:12.258Z,1000.93
2016-11-17T14:37:37.853Z,1000.97
2016-11-17T14:38:03.425Z,1000.97
2016-11-17T14:38:29.004Z,1000.98
2016-11-17T14:38:54.586Z,1000.95
2016-11-17T14:39:20.169Z,1000.96
2016-11-17T14:39:45.726Z,1001
2016-11-17T14:40:11.320Z,1000.97
2016-11-17T14:40:36.980Z,1000.98
2016-11-17T14:41:02.543Z,1001
2016-11-17T14:41:28.137Z,1001.02
2016-11-17T14:41:53.749Z,1001
2016-11-17T14:42:19.357Z,1001.01
2016-11-17T14:42:45.046Z,1001
2016-11-17T14:43:10.626Z,1001.06
2016-11-17T14:43:36.221Z,1001
2016-11-17T14:44:01.775Z,1000.96
2016-11-17T14:44:27.352Z,1000.96
2016-11-17T14:44:53.040Z,1001
2016-11-17T14:45:19.279Z,1001.02
2016-11-17T14:45:44.883Z,1000.99
2016-11-17T14:46:10.573Z,1001.04
2016-11-17T14:46:37.099Z,1000.95
2016-11-17T14:47:02.663Z,1000.93
2016-11-17T14:47:28.302Z,1000.99
2016-11-17T14:47:53.870Z,1000.93
2016-11-17T14:48:19.416Z,1000.94
2016-11-17T14:48:44.972Z,1001
2016-11-17T14:49:10.552Z,1000.91
2016-11-17T14:49:36.197Z,1000.95
2016-11-17T14:50:01.744Z,1000.9
2016-11-17T14:50:27.304Z,1000.95
2016-11-17T14:50:52.895Z,1000.86
2016-11-17T14:51:18.450Z,1000.83
2016-11-17T14:51:44.026Z,1000.84
2016-11-17T14:52:09.597Z,1000.84
2016-11-17T14:52:35.171Z,1000.83
2016-11-17T14:53:00.719Z,1000.81
2016-11-17T14:53:26.923Z,1000.83
2016-11-17T14:53:52.480Z,1000.83
2016-11-17T14:54:18.045Z,1000.84
2016-11-17T14:54:43.621Z,1000.83
2016-11-17T14:55:09.226Z,1000.78
2016-11-17T14:55:34.813Z,1000.83
2016-11-17T14:56:00.624Z,1000.8
2016-11-17T14:56:26.243Z,1000.8
2016-11-17T14:56:51.799Z,1000.83
2016-11-17T14:57:17.360Z,1000.81
2016-11-17T14:57:42.930Z,1000.83
2016-11-17T14:58:08.510Z,1000.81
2016-11-17T14:58:34.091Z,1000.8
2016-11-17T14:58:59.637Z,1000.8
2016-11-17T14:59:25.297Z,1000.82
2016-11-17T14:59:50.837Z,1000.82
2016-11-17T15:00:16.427Z,1000.8
2016-11-17T15:00:42.024Z,1000.81
2016-11-17T15:01:07.663Z,1000.79
2016-11-17T15:01:33.202Z,1000.82
2016-11-17T15:01:58.756Z,1000.79
2016-11-17T15:02:24.446Z,1000.84
2016-11-17T15:02:50.082Z,1000.83
2016-11-17T15:03:15.634Z,1000.8
2016-11-17T15:03:41.230Z,1000.79
2016-11-17T15:04:06.775Z,1000.78
2016-11-17T15:04:32.427Z,1000.76
2016-11-17T15:04:57.975Z,1000.7
2016-11-17T15:05:23.649Z,1000.73
2016-11-17T15:05:50.218Z,1000.73
2016-11-17T15:06:15.798Z,1000.73
2016-11-17T15:06:41.413Z,1000.74
2016-11-17T15:07:06.954Z,1000.76
2016-11-17T15:07:32.560Z,1000.73
2016-11-17T15:07:58.146Z,1000.75
2016-11-17T15:08:23.741Z,1000.76
2016-11-17T15:08:49.450Z,1000.79
2016-11-17T15:09:15.023Z,1000.73
2016-11-17T15:09:40.589Z,1000.78
2016-11-17T15:10:06.223Z,1000.76
2016-11-17T15:10:31.773Z,1000.77
2016-11-17T15:10:57.361Z,1000.78
2016-11-17T15:11:22.922Z,1000.81
2016-11-17T15:11:48.646Z,1000.83
2016-11-17T15:12:14.290Z,1000.84
2016-11-17T15:12:39.857Z,1000.77
2016-11-17T15:13:05.477Z,1000.78
2016-11-17T15:13:31.045Z,1000.84
2016-11-17T15:13:56.696Z,1000.81
2016-11-17T15:14:22.279Z,1000.77
2016-11-17T15:14:47.845Z,1000.76
2016-11-17T15:15:13.399Z,1000.77
2016-11-17T15:15:38.987Z,1000.73
2016-11-17T15:16:04.661Z,1000.75
2016-11-17T15:16:30.235Z,1000.71
2016-11-17T15:16:55.811Z,1000.72
2016-11-17T15:17:21.466Z,1000.77
2016-11-17T15:17:47.032Z,1000.73
2016-11-17T15:18:12.679Z,1000.72
2016-11-17T15:18:38.249Z,1000.75
2016-11-17T15:19:03.912Z,1000.73
2016-11-17T15:19:29.539Z,1000.71
2016-11-17T15:19:55.131Z,1000.75
2016-11-17T15:20:20.725Z,1000.74
2016-11-17T15:20:46.274Z,1000.77
2016-11-17T15:21:11.841Z,1000.72
2016-11-17T15:21:37.463Z,1000.72
2016-11-17T15:22:03.064Z,1000.75
2016-11-17T15:22:28.642Z,1000.71
2016-11-17T15:22:54.230Z,1000.72
2016-11-17T15:23:19.893Z,1000.76
2016-11-17T15:23:45.449Z,1000.74
2016-11-17T15:24:11.083Z,1000.76
2016-11-17T15:24:36.708Z,1000.77
2016-11-17T15:25:02.260Z,1000.75
2016-11-17T15:25:27.950Z,1000.79
2016-11-17T15:26:31.167Z,1000.71
2016-11-17T15:27:40.765Z,1000.69
2016-11-17T15:29:55.362Z,1000.64
2016-11-17T15:30:21.034Z,1000.66
2016-11-17T15:30:46.586Z,1000.68
2016-11-17T15:31:12.144Z,1000.61
2016-11-17T15:31:37.748Z,1000.57
2016-11-17T15:32:03.322Z,1000.63
2016-11-17T15:32:28.924Z,1000.57
2016-11-17T15:32:54.579Z,1000.54
2016-11-17T15:33:20.150Z,1000.55
2016-11-17T15:33:45.719Z,1000.59
2016-11-17T15:34:11.264Z,1000.59
2016-11-17T15:34:36.837Z,1000.54
2016-11-17T15:35:02.372Z,1000.55
2016-11-17T15:35:28.023Z,1000.53
2016-11-17T15:35:53.589Z,1000.56
2016-11-17T15:36:19.138Z,1000.52
2016-11-17T15:36:44.688Z,1000.53
2016-11-17T15:37:10.249Z,1000.5
2016-11-17T15:37:35.827Z,1000.59
2016-11-17T15:38:01.389Z,1000.5
2016-11-17T15:38:27.016Z,1000.49
2016-11-17T15:38:52.590Z,1000.46
2016-11-17T15:39:18.143Z,1000.48